Time;durP1;ratioP1;P1;durP2;ratioP2;P2;SDS_P1;SDS_P2;PMS_P1;PMS_P2;Temp;Humidity;BMP_temperature;BMP_pressure;BME280_temperature;BME280_humidity;BME280_pressure;Samples;Min_cycle;Max_cycle;Signal;HPM_P1;HPM_P2
2023/08/06 00:01:30;;;;;;;4.17;3.20;;;;;;;16.75;100.00;99551.06;5023973;28;20751;-75
2023/08/06 00:03:56;;;;;;;4.50;3.10;;;;;;;16.75;100.00;99559.09;5026982;28;20208;-75
2023/08/06 00:06:23;;;;;;;3.93;3.10;;;;;;;16.74;100.00;99553.78;5018756;28;20648;-75
2023/08/06 00:08:49;;;;;;;3.20;2.63;;;;;;;16.70;100.00;99555.66;5008786;28;20242;-75
2023/08/06 00:11:16;;;;;;;4.40;3.20;;;;;;;16.68;100.00;99548.59;5020451;28;20204;-75
2023/08/06 00:13:42;;;;;;;6.50;2.87;;;;;;;16.65;100.00;99545.97;5023068;28;20683;-75
2023/08/06 00:16:10;;;;;;;4.70;2.73;;;;;;;16.66;100.00;99537.06;5027742;28;20234;-76
2023/08/06 00:18:37;;;;;;;4.97;3.30;;;;;;;16.67;100.00;99539.69;5023066;28;20217;-76
2023/08/06 00:21:04;;;;;;;3.73;2.90;;;;;;;16.64;100.00;99534.38;5026920;28;20206;-75
2023/08/06 00:23:31;;;;;;;4.60;2.77;;;;;;;16.67;100.00;99537.00;5016312;28;20218;-75
2023/08/06 00:25:57;;;;;;;4.70;2.80;;;;;;;16.70;100.00;99531.59;5020566;28;20719;-76
2023/08/06 00:28:23;;;;;;;3.20;2.80;;;;;;;16.69;100.00;99523.59;5022704;28;20215;-76
2023/08/06 00:30:54;;;;;;;3.93;2.90;;;;;;;16.67;100.00;99522.75;5026839;28;20199;-75
2023/08/06 00:33:21;;;;;;;3.73;2.70;;;;;;;16.65;100.00;99514.75;5022992;28;20286;-76
2023/08/06 00:35:48;;;;;;;3.63;2.80;;;;;;;16.74;100.00;99516.34;5023291;28;20224;-75
2023/08/06 00:38:14;;;;;;;6.00;3.23;;;;;;;16.73;100.00;99517.25;5018059;28;20643;-75
2023/08/06 00:40:41;;;;;;;4.57;2.80;;;;;;;16.74;100.00;99517.22;5011434;28;20208;-74
2023/08/06 00:43:07;;;;;;;4.37;2.83;;;;;;;16.76;100.00;99512.72;5005662;28;20206;-75
2023/08/06 00:45:37;;;;;;;4.63;2.43;;;;;;;16.80;100.00;99506.34;5020799;28;20718;-75
2023/08/06 00:48:05;;;;;;;3.53;3.00;;;;;;;16.80;100.00;99502.81;5024399;28;20238;-75
2023/08/06 00:50:32;;;;;;;4.47;2.90;;;;;;;16.81;100.00;99496.53;5022164;28;20214;-76
2023/08/06 00:52:59;;;;;;;4.93;2.93;;;;;;;16.78;100.00;99494.81;5021436;28;20290;-76
2023/08/06 00:55:25;;;;;;;3.93;2.67;;;;;;;16.77;100.00;99486.84;5019280;28;20207;-75
2023/08/06 00:57:52;;;;;;;3.13;2.40;;;;;;;16.77;100.00;99482.38;5020138;28;20200;-76
2023/08/06 01:00:20;;;;;;;3.47;2.50;;;;;;;16.77;100.00;99482.38;5021285;28;20265;-75
2023/08/06 01:02:48;;;;;;;4.13;2.63;;;;;;;16.79;100.00;99477.88;5018206;28;20200;-75
2023/08/06 01:05:15;;;;;;;3.30;2.87;;;;;;;16.77;100.00;99481.50;5021208;28;20203;-75
2023/08/06 01:08:06;;;;;;;3.27;2.50;;;;;;;16.77;100.00;99482.38;5023867;28;20203;-75
2023/08/06 01:10:59;;;;;;;3.90;2.80;;;;;;;16.85;100.00;99471.50;5022823;28;20240;-76
2023/08/06 01:13:34;;;;;;;4.57;2.57;;;;;;;16.84;100.00;99475.09;5021648;28;20222;-76
2023/08/06 01:16:02;;;;;;;5.33;2.70;;;;;;;16.82;100.00;99471.59;5013110;28;20315;-75
2023/08/06 01:18:28;;;;;;;3.47;2.70;;;;;;;16.82;100.00;99474.25;5027805;28;20636;-76
2023/08/06 01:20:57;;;;;;;5.13;2.73;;;;;;;16.75;100.00;99465.50;5023463;28;20218;-75
2023/08/06 01:23:24;;;;;;;5.50;3.00;;;;;;;16.74;100.00;99461.06;5022255;28;20286;-75
2023/08/06 01:26:16;;;;;;;4.00;2.73;;;;;;;16.77;100.00;99471.69;5022030;28;20234;-76
2023/08/06 01:28:54;;;;;;;3.70;2.87;;;;;;;16.81;100.00;99470.72;5027027;28;20251;-75
2023/08/06 01:31:42;;;;;;;4.90;2.73;;;;;;;16.79;100.00;99468.97;5017863;28;20227;-77
2023/08/06 01:34:21;;;;;;;4.83;2.97;;;;;;;16.76;100.00;99466.38;5024070;28;20196;-76
2023/08/06 01:36:48;;;;;;;6.97;3.03;;;;;;;16.70;100.00;99467.41;5021091;28;20232;-75
2023/08/06 01:39:15;;;;;;;4.40;2.97;;;;;;;16.67;100.00;99463.94;5020358;28;20200;-77
2023/08/06 01:41:41;;;;;;;3.73;2.60;;;;;;;16.64;100.00;99455.97;5011332;28;20240;-76
2023/08/06 01:44:08;;;;;;;3.83;2.90;;;;;;;16.57;100.00;99460.59;5018168;28;20667;-76
2023/08/06 01:46:34;;;;;;;4.77;2.73;;;;;;;16.49;100.00;99460.81;5017020;28;20255;-76
2023/08/06 01:49:00;;;;;;;4.23;2.70;;;;;;;16.46;100.00;99460.00;5012650;28;20380;-76
2023/08/06 01:51:27;;;;;;;4.27;2.77;;;;;;;16.42;100.00;99464.56;5018726;28;20273;-76
2023/08/06 01:53:53;;;;;;;3.90;3.00;;;;;;;16.37;100.00;99462.91;5003918;28;20579;-76
2023/08/06 01:56:20;;;;;;;5.33;2.73;;;;;;;16.29;100.00;99463.09;5017678;28;20235;-76
2023/08/06 01:58:46;;;;;;;4.20;2.60;;;;;;;16.32;100.00;99464.81;5023640;28;20202;-76
2023/08/06 02:01:13;;;;;;;5.50;2.93;;;;;;;16.27;100.00;99451.56;5016915;28;20209;-76
2023/08/06 02:03:39;;;;;;;4.30;3.03;;;;;;;16.27;100.00;99454.22;5007017;28;20203;-76
2023/08/06 02:06:06;;;;;;;5.33;2.50;;;;;;;16.25;100.00;99454.28;5015001;28;20252;-77
2023/08/06 02:08:32;;;;;;;5.40;3.00;;;;;;;16.16;100.00;99449.16;5019449;28;20211;-76
2023/08/06 02:10:59;;;;;;;4.37;3.03;;;;;;;16.13;100.00;99456.38;5019094;28;20280;-76
2023/08/06 02:13:25;;;;;;;4.33;2.80;;;;;;;16.12;100.00;99444.81;5013775;28;20600;-76
2023/08/06 02:15:52;;;;;;;6.23;3.00;;;;;;;16.06;100.00;99444.09;5023315;28;20687;-75
2023/08/06 02:18:18;;;;;;;4.83;3.03;;;;;;;16.08;100.00;99431.56;5019657;28;20287;-76
2023/08/06 02:20:58;;;;;;;5.30;2.90;;;;;;;15.97;100.00;99437.16;5020733;28;20203;-76
2023/08/06 02:23:25;;;;;;;7.00;3.17;;;;;;;15.95;100.00;99437.19;5010471;28;20282;-77
2023/08/06 02:26:01;;;;;;;5.50;3.40;;;;;;;16.00;100.00;99431.72;5014922;28;20223;-76
2023/08/06 02:28:29;;;;;;;5.00;2.93;;;;;;;16.03;100.00;99428.13;5021665;28;20286;-77
2023/08/06 02:30:55;;;;;;;4.73;2.83;;;;;;;16.09;100.00;99427.97;5024088;28;20286;-76
2023/08/06 02:33:22;;;;;;;3.83;2.90;;;;;;;16.12;100.00;99427.91;5018045;28;20199;-75
2023/08/06 02:35:48;;;;;;;4.63;2.60;;;;;;;16.10;100.00;99417.25;5018894;28;20215;-76
2023/08/06 02:38:15;;;;;;;3.67;2.80;;;;;;;16.14;100.00;99421.63;5019599;28;20713;-75
2023/08/06 02:40:47;;;;;;;3.83;2.53;;;;;;;16.11;100.00;99413.69;5022570;28;20203;-76
2023/08/06 02:43:14;;;;;;;4.50;2.83;;;;;;;16.16;100.00;99414.44;5020389;28;20204;-75
2023/08/06 02:45:40;;;;;;;5.67;3.13;;;;;;;16.18;100.00;99409.06;4995613;28;20230;-76
2023/08/06 02:48:07;;;;;;;4.87;2.87;;;;;;;16.18;100.00;99404.59;5013129;28;20203;-76
2023/08/06 02:50:40;;;;;;;3.73;2.57;;;;;;;16.22;100.00;99406.25;5024271;28;20230;-75
2023/08/06 02:53:09;;;;;;;3.60;2.40;;;;;;;16.25;100.00;99406.19;5024086;28;20210;-76
2023/08/06 02:55:36;;;;;;;3.40;2.97;;;;;;;16.23;100.00;99401.78;5024639;28;20326;-76
2023/08/06 02:58:03;;;;;;;3.43;2.70;;;;;;;16.29;100.00;99393.63;5011890;28;20235;-76
2023/08/06 03:00:29;;;;;;;4.23;2.60;;;;;;;16.26;100.00;99389.22;5013352;28;20214;-76
2023/08/06 03:02:56;;;;;;;4.83;2.50;;;;;;;16.27;100.00;99387.44;5018152;28;20594;-75
2023/08/06 03:05:22;;;;;;;3.50;2.27;;;;;;;16.29;100.00;99389.16;5015793;28;20200;-75
2023/08/06 03:07:49;;;;;;;5.03;2.73;;;;;;;16.28;100.00;99384.72;5018495;28;20410;-75
2023/08/06 03:10:15;;;;;;;3.33;2.70;;;;;;;16.24;100.00;99387.53;5015368;28;20215;-76
2023/08/06 03:12:41;;;;;;;5.27;3.00;;;;;;;16.25;100.00;99394.63;5028617;28;20199;-76
2023/08/06 03:15:08;;;;;;;3.90;2.63;;;;;;;16.24;100.00;99380.38;5024999;28;20200;-75
2023/08/06 03:17:35;;;;;;;4.40;2.80;;;;;;;16.22;100.00;99379.53;5020094;28;20195;-76
2023/08/06 03:20:02;;;;;;;3.47;2.67;;;;;;;16.22;100.00;99379.53;5019087;28;20360;-75
2023/08/06 03:22:28;;;;;;;4.47;2.87;;;;;;;16.18;100.00;99372.53;5024343;28;20623;-76
2023/08/06 03:24:55;;;;;;;5.60;2.90;;;;;;;16.14;100.00;99376.19;5024216;28;20287;-75
2023/08/06 03:27:21;;;;;;;2.87;2.53;;;;;;;16.07;100.00;99365.72;5020091;28;20232;-76
2023/08/06 03:29:51;;;;;;;4.80;2.67;;;;;;;15.92;100.00;99367.84;5019262;28;20278;-76
2023/08/06 03:32:17;;;;;;;3.37;2.77;;;;;;;15.69;100.00;99363.97;5019888;28;20215;-76
2023/08/06 03:34:44;;;;;;;5.17;2.97;;;;;;;15.57;100.00;99368.63;5027442;28;20200;-76
2023/08/06 03:37:10;;;;;;;3.30;2.90;;;;;;;15.35;100.00;99368.25;5026120;28;20298;-76
2023/08/06 03:39:37;;;;;;;4.50;3.10;;;;;;;15.28;100.00;99374.66;5021708;28;20652;-76
2023/08/06 03:42:03;;;;;;;4.23;3.07;;;;;;;15.23;100.00;99373.00;5020131;28;20218;-76
2023/08/06 03:44:30;;;;;;;3.83;2.93;;;;;;;15.30;100.00;99366.63;5005409;28;20290;-76
2023/08/06 03:46:57;;;;;;;4.27;2.67;;;;;;;15.42;100.00;99365.47;5027650;28;20774;-75
2023/08/06 03:49:23;;;;;;;4.73;2.90;;;;;;;15.47;100.00;99359.09;5020224;28;20222;-76
2023/08/06 03:51:50;;;;;;;4.63;3.17;;;;;;;15.55;100.00;99356.25;5023559;28;20202;-75
2023/08/06 03:54:17;;;;;;;3.87;3.00;;;;;;;15.68;100.00;99365.78;5024379;28;20325;-75
2023/08/06 03:56:43;;;;;;;3.83;2.97;;;;;;;15.67;100.00;99364.03;5033670;23;20310;-71
2023/08/06 03:59:10;;;;;;;4.30;3.07;;;;;;;15.77;100.00;99367.34;5003092;28;20192;-70
2023/08/06 04:01:36;;;;;;;5.10;2.60;;;;;;;15.74;100.00;99370.97;5004930;28;20212;-72
2023/08/06 04:04:03;;;;;;;3.43;2.50;;;;;;;15.69;100.00;99370.19;5005451;28;20228;-71
2023/08/06 04:06:29;;;;;;;3.37;2.43;;;;;;;15.61;100.00;99365.03;4963559;28;20300;-70
2023/08/06 04:08:55;;;;;;;3.67;2.67;;;;;;;15.53;100.00;99374.09;4962512;28;20202;-70
2023/08/06 04:11:22;;;;;;;4.97;2.57;;;;;;;15.43;100.00;99370.75;4965581;28;20206;-70
2023/08/06 04:13:48;;;;;;;3.97;2.53;;;;;;;15.27;100.00;99359.56;4969252;28;20708;-70
2023/08/06 04:16:15;;;;;;;4.33;2.40;;;;;;;15.33;100.00;99369.22;4965441;28;20217;-72
2023/08/06 04:18:41;;;;;;;4.67;2.80;;;;;;;15.32;100.00;99360.34;4969804;28;20213;-70
2023/08/06 04:21:08;;;;;;;5.60;2.50;;;;;;;15.40;100.00;99364.63;4961520;28;20197;-71
2023/08/06 04:23:34;;;;;;;3.80;2.40;;;;;;;15.38;100.00;99356.66;4968643;28;20601;-69
2023/08/06 04:26:01;;;;;;;5.60;2.63;;;;;;;15.34;100.00;99349.63;4969360;28;20228;-72
2023/08/06 04:28:27;;;;;;;3.87;2.43;;;;;;;15.34;100.00;99355.84;4968965;28;20205;-72
2023/08/06 04:30:53;;;;;;;4.20;2.40;;;;;;;15.30;100.00;99356.81;4965573;28;20225;-71
2023/08/06 04:33:20;;;;;;;5.13;2.13;;;;;;;15.33;100.00;99356.75;4961885;28;20201;-68
2023/08/06 04:35:47;;;;;;;3.13;2.30;;;;;;;15.35;100.00;99357.59;4961407;28;20771;-69
2023/08/06 04:38:13;;;;;;;4.10;2.30;;;;;;;15.36;100.00;99356.69;4960788;28;20209;-67
2023/08/06 04:40:40;;;;;;;4.90;2.10;;;;;;;15.45;100.00;99355.59;4968805;28;20285;-70
2023/08/06 04:43:07;;;;;;;5.97;2.40;;;;;;;15.40;100.00;99354.81;4946025;28;20289;-70
2023/08/06 04:45:33;;;;;;;2.97;1.57;;;;;;;15.41;100.00;99351.22;4968017;28;20205;-71
2023/08/06 04:47:59;;;;;;;4.43;2.00;;;;;;;15.41;100.00;99361.91;4964436;28;20579;-70
2023/08/06 04:50:26;;;;;;;3.57;1.80;;;;;;;15.40;100.00;99359.28;4965192;28;20218;-67
2023/08/06 04:52:52;;;;;;;3.33;1.70;;;;;;;15.39;100.00;99358.41;4957233;28;20653;-71
2023/08/06 04:55:19;;;;;;;3.13;1.70;;;;;;;15.36;100.00;99355.81;4953274;28;20202;-70
2023/08/06 04:57:45;;;;;;;3.70;1.77;;;;;;;15.40;100.00;99356.59;4955762;28;20229;-70
2023/08/06 05:00:12;;;;;;;3.40;1.70;;;;;;;15.41;100.00;99353.91;4970809;28;20197;-70
2023/08/06 05:02:38;;;;;;;3.50;1.50;;;;;;;15.36;100.00;99358.47;4971304;28;20205;-69
2023/08/06 05:05:05;;;;;;;2.93;1.53;;;;;;;15.38;100.00;99353.09;4971230;28;20217;-71
2023/08/06 05:07:31;;;;;;;6.50;1.50;;;;;;;15.45;100.00;99354.72;4952949;28;20555;-71
2023/08/06 05:09:58;;;;;;;4.03;1.40;;;;;;;15.45;100.00;99355.59;4935637;28;20228;-69
2023/08/06 05:12:24;;;;;;;2.77;1.33;;;;;;;15.52;100.00;99353.66;4964904;28;20256;-70
2023/08/06 05:14:51;;;;;;;3.53;1.53;;;;;;;15.63;100.00;99357.88;4967694;28;20198;-70
2023/08/06 05:17:17;;;;;;;2.50;1.50;;;;;;;15.69;100.00;99355.97;4968813;28;21179;-70
2023/08/06 05:19:43;;;;;;;2.73;1.20;;;;;;;15.72;100.00;99347.88;4952961;28;20206;-70
2023/08/06 05:22:10;;;;;;;3.33;1.50;;;;;;;15.74;100.00;99360.28;4952603;28;20293;-71
2023/08/06 05:24:36;;;;;;;2.60;1.10;;;;;;;15.71;100.00;99349.69;4952799;28;20221;-70
2023/08/06 05:27:03;;;;;;;2.20;1.00;;;;;;;15.80;100.00;99345.91;4957011;28;20229;-70
2023/08/06 05:29:29;;;;;;;1.20;1.00;;;;;;;15.78;100.00;99345.94;4971302;28;20308;-69
2023/08/06 05:31:55;;;;;;;1.57;1.07;;;;;;;15.86;100.00;99353.75;4964284;28;20202;-69
2023/08/06 05:34:22;;;;;;;2.00;1.07;;;;;;;15.93;100.00;99348.22;4960680;28;20610;-70
2023/08/06 05:36:49;;;;;;;2.70;1.13;;;;;;;16.05;100.00;99356.88;4952570;28;20228;-70
2023/08/06 05:39:15;;;;;;;2.40;0.80;;;;;;;16.00;100.00;99348.94;4952659;28;20293;-70
2023/08/06 05:41:41;;;;;;;2.07;1.10;;;;;;;15.94;100.00;99349.97;4957782;28;20210;-70
2023/08/06 05:44:08;;;;;;;1.47;0.80;;;;;;;15.97;100.00;99352.56;4970305;28;20216;-70
2023/08/06 05:46:34;;;;;;;2.33;1.20;;;;;;;15.97;100.00;99351.69;4972325;28;20233;-70
2023/08/06 05:49:01;;;;;;;1.00;0.90;;;;;;;15.93;100.00;99353.56;4938392;28;20252;-70
2023/08/06 05:51:28;;;;;;;1.70;1.10;;;;;;;15.90;100.00;99358.09;4944365;29;20229;-68
2023/08/06 05:53:55;;;;;;;1.27;0.80;;;;;;;15.85;100.00;99365.34;4965115;28;20206;-66
2023/08/06 05:56:21;;;;;;;1.17;0.70;;;;;;;15.80;100.00;99356.59;4967933;28;20237;-69
2023/08/06 05:58:48;;;;;;;1.83;0.87;;;;;;;15.81;100.00;99358.34;4952669;28;20264;-69
2023/08/06 06:01:15;;;;;;;1.03;0.93;;;;;;;15.70;100.00;99344.38;4951990;28;20209;-68
2023/08/06 06:03:41;;;;;;;0.73;0.73;;;;;;;15.71;100.00;99362.16;4952209;28;20213;-69
2023/08/06 06:06:07;;;;;;;1.33;0.70;;;;;;;15.74;100.00;99364.75;4937424;28;20230;-69
2023/08/06 06:08:34;;;;;;;0.87;0.70;;;;;;;15.71;100.00;99360.34;4964826;28;20287;-69
2023/08/06 06:11:00;;;;;;;0.87;0.70;;;;;;;15.72;100.00;99355.91;4963562;28;20225;-68
2023/08/06 06:13:27;;;;;;;1.07;0.80;;;;;;;15.74;100.00;99370.09;4967258;28;20198;-69
2023/08/06 06:15:56;;;;;;;1.60;0.60;;;;;;;15.78;100.00;99364.63;4958948;28;20229;-70
2023/08/06 06:18:23;;;;;;;1.17;0.80;;;;;;;15.84;100.00;99364.47;4952648;28;20633;-70
2023/08/06 06:20:49;;;;;;;1.43;0.80;;;;;;;15.82;100.00;99360.97;4970071;28;20289;-67
2023/08/06 06:23:16;;;;;;;1.40;0.80;;;;;;;15.74;100.00;99365.63;4969697;28;20233;-69
2023/08/06 06:25:51;;;;;;;1.93;0.80;;;;;;;15.80;100.00;99367.25;4970108;28;20273;-69
2023/08/06 06:28:18;;;;;;;1.07;0.80;;;;;;;15.82;100.00;99355.63;4952700;28;20265;-70
2023/08/06 06:30:45;;;;;;;2.13;0.80;;;;;;;15.93;100.00;99366.91;4952057;28;20309;-65
2023/08/06 06:33:11;;;;;;;1.93;0.60;;;;;;;15.98;100.00;99373.00;4961753;28;20198;-69
2023/08/06 06:35:37;;;;;;;0.90;0.70;;;;;;;15.88;100.00;99366.16;4970963;28;20721;-69
2023/08/06 06:38:05;;;;;;;0.77;0.60;;;;;;;15.95;100.00;99380.22;4953190;28;20209;-68
2023/08/06 06:40:32;;;;;;;0.77;0.40;;;;;;;15.93;100.00;99374.06;4958874;28;20199;-69
2023/08/06 06:42:59;;;;;;;1.00;0.90;;;;;;;15.94;100.00;99373.13;4954749;28;20292;-69
2023/08/06 06:45:25;;;;;;;1.73;0.90;;;;;;;15.87;100.00;99377.75;4956194;28;20202;-67
2023/08/06 06:47:52;;;;;;;2.93;0.90;;;;;;;15.94;100.00;99374.00;4957383;28;20281;-70
2023/08/06 06:50:18;;;;;;;0.57;0.57;;;;;;;15.92;100.00;99378.50;4967396;28;20221;-69
2023/08/06 06:52:45;;;;;;;1.77;0.77;;;;;;;15.99;100.00;99372.09;4967587;28;20212;-68
2023/08/06 06:55:11;;;;;;;1.33;0.80;;;;;;;16.09;100.00;99372.78;4973721;28;20320;-69
2023/08/06 06:57:37;;;;;;;0.77;0.70;;;;;;;16.14;100.00;99378.00;4955511;28;20237;-68
2023/08/06 07:00:04;;;;;;;1.30;0.97;;;;;;;16.15;100.00;99375.28;4955067;28;20257;-67
2023/08/06 07:02:32;;;;;;;2.30;0.80;;;;;;;16.27;100.00;99382.97;4955295;28;20202;-67
2023/08/06 07:04:58;;;;;;;2.07;1.30;;;;;;;16.45;100.00;99378.09;4966302;28;20665;-69
2023/08/06 07:07:25;;;;;;;1.00;0.90;;;;;;;16.65;100.00;99382.88;4970732;28;20236;-69
2023/08/06 07:09:51;;;;;;;2.40;0.80;;;;;;;16.68;100.00;99383.69;4972447;28;20210;-70
2023/08/06 07:12:17;;;;;;;1.90;0.90;;;;;;;16.82;100.00;99383.34;4973991;28;20677;-69
2023/08/06 07:14:44;;;;;;;1.70;0.90;;;;;;;16.90;100.00;99384.00;4961091;28;20214;-68
2023/08/06 07:17:10;;;;;;;1.10;0.83;;;;;;;17.06;100.00;99387.09;4954970;28;20673;-68
2023/08/06 07:19:37;;;;;;;1.73;0.83;;;;;;;17.13;100.00;99383.31;4971028;28;20236;-70
2023/08/06 07:22:03;;;;;;;1.77;0.97;;;;;;;17.06;100.00;99387.09;4965352;28;20393;-68
2023/08/06 07:24:30;;;;;;;4.13;0.90;;;;;;;17.10;100.00;99391.44;4955016;28;20257;-70
2023/08/06 07:26:56;;;;;;;1.37;0.93;;;;;;;17.16;100.00;99392.13;4955004;28;20261;-68
2023/08/06 07:29:23;;;;;;;1.23;0.80;;;;;;;17.20;100.00;99384.88;4954551;28;20205;-69
2023/08/06 07:31:50;;;;;;;1.40;0.87;;;;;;;17.43;100.00;99379.72;4959670;28;20313;-69
2023/08/06 07:34:17;;;;;;;1.00;0.80;;;;;;;17.64;100.00;99388.03;4956844;28;20319;-69
2023/08/06 07:36:46;;;;;;;1.33;0.80;;;;;;;17.91;100.00;99379.13;4967040;28;20229;-69
2023/08/06 07:39:12;;;;;;;2.33;0.80;;;;;;;18.21;100.00;99381.72;4971177;28;20210;-69
2023/08/06 07:41:39;;;;;;;1.23;0.77;;;;;;;18.45;100.00;99380.91;4954752;28;20316;-69
2023/08/06 07:44:05;;;;;;;1.10;0.80;;;;;;;18.75;100.00;99373.59;4954618;28;20237;-68
2023/08/06 07:46:32;;;;;;;1.73;0.70;;;;;;;19.03;100.00;99381.50;4954505;28;20225;-68
2023/08/06 07:48:58;;;;;;;1.27;0.70;;;;;;;18.96;100.00;99388.03;4969579;28;20201;-68
2023/08/06 07:51:25;;;;;;;1.00;0.70;;;;;;;18.86;100.00;99381.25;4970583;28;20218;-68
2023/08/06 07:53:51;;;;;;;0.93;0.70;;;;;;;18.83;100.00;99374.22;4969595;28;20209;-70
2023/08/06 07:56:17;;;;;;;0.70;0.50;;;;;;;19.00;100.00;99373.56;4956753;28;20309;-69
2023/08/06 07:58:44;;;;;;;1.02;0.50;;;;;;;19.32;100.00;99380.41;4954412;28;20229;-68
2023/08/06 08:01:10;;;;;;;1.50;0.63;;;;;;;19.76;100.00;99373.31;4954022;28;20623;-68
2023/08/06 08:03:37;;;;;;;1.20;0.60;;;;;;;19.81;100.00;99365.09;4953419;28;20292;-70
2023/08/06 08:06:03;;;;;;;0.50;0.50;;;;;;;19.82;100.00;99374.88;4971242;28;20225;-66
2023/08/06 08:08:30;;;;;;;1.17;0.50;;;;;;;19.59;100.00;99378.47;4965679;28;20227;-68
2023/08/06 08:10:58;;;;;;;1.05;0.50;;;;;;;19.55;100.00;99375.03;4958528;28;20309;-68
2023/08/06 08:13:25;;;;;;;0.63;0.63;;;;;;;19.62;100.00;99370.34;4936804;28;20210;-68
2023/08/06 08:15:56;;;;;;;0.50;0.50;;;;;;;19.57;100.00;99374.97;4957914;28;20316;-66
2023/08/06 08:18:23;;;;;;;1.40;0.40;;;;;;;19.75;100.00;99363.53;4972567;28;20245;-68
2023/08/06 08:20:50;;;;;;;3.27;0.50;;;;;;;19.75;100.00;99363.53;4959214;28;20198;-68
2023/08/06 08:23:16;;;;;;;0.63;0.60;;;;;;;19.46;100.00;99371.81;4953298;28;20689;-70
2023/08/06 08:25:43;;;;;;;1.03;0.50;;;;;;;18.84;100.00;99365.22;4953910;28;20438;-68
2023/08/06 08:28:09;;;;;;;0.37;0.37;;;;;;;18.37;100.00;99361.50;4968826;28;20292;-69
2023/08/06 08:30:35;;;;;;;0.50;0.40;;;;;;;18.42;100.00;99356.88;4968832;28;20225;-70
2023/08/06 08:33:02;;;;;;;0.63;0.50;;;;;;;18.53;100.00;99361.84;4953637;28;20472;-70
2023/08/06 08:35:28;;;;;;;0.60;0.60;;;;;;;18.29;100.00;99356.41;4953852;28;20214;-69
2023/08/06 08:37:55;;;;;;;0.40;0.40;;;;;;;18.79;100.00;99353.75;4963055;28;20272;-69
2023/08/06 08:40:28;;;;;;;0.50;0.50;;;;;;;19.02;100.00;99344.88;4970086;28;20224;-70
2023/08/06 08:42:59;;;;;;;0.50;0.50;;;;;;;19.13;100.00;99355.19;4953630;28;20210;-67
2023/08/06 08:45:29;;;;;;;1.17;1.03;;;;;;;19.49;100.00;99344.84;4953299;28;20206;-69
2023/08/06 08:47:56;;;;;;;0.83;0.70;;;;;;;20.15;100.00;99353.81;4960229;28;20218;-68
2023/08/06 08:50:22;;;;;;;1.00;0.80;;;;;;;20.67;100.00;99348.91;4970245;28;20328;-69
2023/08/06 08:52:50;;;;;;;1.10;0.90;;;;;;;20.25;100.00;99347.09;4953252;28;20678;-68
2023/08/06 08:55:17;;;;;;;1.07;0.90;;;;;;;20.05;100.00;99345.28;4953359;28;20214;-68
2023/08/06 08:57:44;;;;;;;0.90;0.80;;;;;;;20.44;100.00;99347.22;4954419;28;20225;-68
2023/08/06 09:00:10;;;;;;;0.70;0.70;;;;;;;20.79;100.00;99345.66;4972025;28;20662;-70
2023/08/06 09:02:38;;;;;;;1.33;0.80;;;;;;;21.05;100.00;99357.94;4959840;28;20671;-66
2023/08/06 09:05:05;;;;;;;1.55;0.70;;;;;;;21.08;100.00;99350.59;4952839;28;20260;-68
2023/08/06 09:07:42;;;;;;;1.70;0.70;;;;;;;21.63;100.00;99355.25;4952783;28;20277;-70
2023/08/06 09:10:13;;;;;;;1.02;0.80;;;;;;;21.71;100.00;99336.88;4968227;28;20201;-69
2023/08/06 09:12:41;;;;;;;0.60;0.60;;;;;;;21.89;100.00;99349.44;4970285;28;20216;-68
2023/08/06 09:15:07;;;;;;;1.85;0.77;;;;;;;21.57;100.00;99341.09;4971797;28;20216;-67
2023/08/06 09:17:34;;;;;;;0.70;0.50;;;;;;;21.70;100.00;99341.41;4953128;28;20233;-68
2023/08/06 09:20:09;;;;;;;2.30;0.80;;;;;;;21.83;100.00;99341.66;4953178;28;20210;-68
2023/08/06 09:22:35;;;;;;;1.10;0.50;;;;;;;21.54;100.00;99346.63;4953579;28;20205;-67
2023/08/06 09:25:04;;;;;;;1.48;0.50;;;;;;;22.06;100.00;99337.88;4971495;28;20212;-69
2023/08/06 09:27:30;;;;;;;1.52;0.50;;;;;;;22.32;100.00;99334.69;4952828;28;20222;-68
2023/08/06 09:29:57;;;;;;;0.65;0.47;;;;;;;21.89;100.00;99349.44;4952709;28;20593;-68
2023/08/06 09:32:23;;;;;;;3.53;0.68;;;;;;;22.22;100.00;99341.50;4951948;28;20236;-68
2023/08/06 09:34:56;;;;;;;0.63;0.40;;;;;;;21.61;100.00;99354.41;4968476;28;20205;-69
2023/08/06 09:37:22;;;;;;;0.30;0.30;;;;;;;21.24;100.00;99354.38;4961317;28;20230;-69
2023/08/06 09:39:49;;;;;;;0.70;0.60;;;;;;;20.98;100.00;99360.03;4935450;29;20212;-68
2023/08/06 09:42:15;;;;;;;0.75;0.35;;;;;;;19.98;100.00;99362.56;4952144;28;20202;-68
2023/08/06 09:44:42;;;;;;;0.45;0.43;;;;;;;19.68;100.00;99354.84;4963588;28;20206;-66
2023/08/06 09:47:08;;;;;;;0.40;0.40;;;;;;;18.94;100.00;99363.94;4971070;28;20664;-69
2023/08/06 09:49:34;;;;;;;0.50;0.50;;;;;;;18.29;100.00;99372.50;4952681;28;20292;-68
2023/08/06 09:52:01;;;;;;;0.60;0.43;;;;;;;18.16;100.00;99366.69;4951766;28;20313;-69
2023/08/06 09:54:29;;;;;;;1.07;0.60;;;;;;;18.05;100.00;99363.50;4957992;28;20227;-69
2023/08/06 09:56:56;;;;;;;0.73;0.73;;;;;;;18.42;100.00;99356.88;5001729;23;20232;-72
2023/08/06 09:59:24;;;;;;;0.70;0.70;;;;;;;18.84;100.00;99357.19;4991188;28;20205;-71
2023/08/06 10:01:51;;;;;;;0.70;0.63;;;;;;;19.39;100.00;99350.56;4983024;28;20228;-71
2023/08/06 10:04:20;;;;;;;0.80;0.80;;;;;;;19.71;100.00;99346.66;5007292;28;20204;-71
2023/08/06 10:06:50;;;;;;;0.60;0.60;;;;;;;20.08;100.00;99346.94;5010357;28;20649;-72
2023/08/06 10:09:18;;;;;;;1.00;0.80;;;;;;;20.13;100.00;99350.31;4992782;28;20239;-71
2023/08/06 10:11:49;;;;;;;0.67;0.60;;;;;;;20.39;100.00;99343.81;4990469;28;20221;-71
2023/08/06 10:14:32;;;;;;;2.22;0.90;;;;;;;21.01;100.00;99354.50;4977347;28;20292;-71
2023/08/06 10:16:59;;;;;;;0.82;0.50;;;;;;;21.24;100.00;99354.38;5004700;28;20232;-71
2023/08/06 10:19:27;;;;;;;0.65;0.47;;;;;;;21.43;100.00;99359.75;4999396;28;20295;-71
2023/08/06 10:22:13;;;;;;;0.55;0.55;;;;;;;20.62;100.00;99360.72;4990558;28;20200;-71
2023/08/06 10:24:50;;;;;;;1.65;0.77;;;;;;;20.50;100.00;99347.84;4976877;28;20577;-70
2023/08/06 10:27:48;;;;;;;1.00;0.70;;;;;;;20.46;100.00;99358.78;5009487;28;20328;-71
2023/08/06 10:30:29;;;;;;;1.27;1.00;;;;;;;20.12;100.00;99353.94;4983841;28;20610;-71
2023/08/06 10:33:00;;;;;;;0.85;0.60;;;;;;;20.61;100.00;99358.13;4990337;28;20200;-71
2023/08/06 10:35:31;;;;;;;0.47;0.47;;;;;;;21.09;100.00;99346.06;4990259;28;20259;-70
2023/08/06 10:38:18;;;;;;;0.40;0.40;;;;;;;21.67;100.00;99346.94;5009890;28;20228;-71
2023/08/06 10:40:50;;;;;;;0.50;0.50;;;;;;;21.52;100.00;99362.00;4996846;28;20205;-71
2023/08/06 10:43:25;;;;;;;0.95;0.77;;;;;;;21.37;100.00;99381.59;4992446;28;20205;-70
2023/08/06 10:45:52;;;;;;;0.95;0.60;;;;;;;19.54;100.00;99385.84;4999203;28;20200;-70
2023/08/06 10:48:34;;;;;;;2.15;1.08;;;;;;;18.47;100.00;99382.59;5012977;28;20675;-70
2023/08/06 10:51:01;;;;;;;5.88;0.80;;;;;;;18.19;100.00;99386.25;4997299;28;20220;-70
2023/08/06 10:53:28;;;;;;;1.37;0.90;;;;;;;18.19;100.00;99375.53;4990810;28;20263;-71
2023/08/06 10:56:00;;;;;;;1.10;0.60;;;;;;;18.06;100.00;99377.78;4991002;28;20211;-70
2023/08/06 10:58:34;;;;;;;0.87;0.80;;;;;;;18.20;100.00;99377.28;5009634;28;20208;-70
2023/08/06 11:01:00;;;;;;;0.80;0.70;;;;;;;18.31;100.00;99381.34;5003592;28;20205;-70
2023/08/06 11:03:27;;;;;;;2.60;1.00;;;;;;;18.27;100.00;99376.16;4991216;28;20209;-71
2023/08/06 11:05:54;;;;;;;0.80;0.80;;;;;;;18.15;100.00;99388.16;4973032;28;20219;-71
2023/08/06 11:08:34;;;;;;;0.47;0.47;;;;;;;17.63;100.00;99397.00;5002972;28;20211;-71
2023/08/06 11:11:12;;;;;;;0.37;0.23;;;;;;;17.23;100.00;99409.78;4994586;28;20229;-70
2023/08/06 11:13:40;;;;;;;0.30;0.30;;;;;;;17.01;100.00;99426.47;4973929;28;20204;-73
2023/08/06 11:16:08;;;;;;;0.20;0.20;;;;;;;16.41;100.00;99429.81;4990952;28;20208;-73
2023/08/06 11:18:34;;;;;;;0.30;0.30;;;;;;;16.11;100.00;99435.03;5002554;28;20291;-72
2023/08/06 11:21:01;;;;;;;4.43;1.83;;;;;;;16.15;100.00;99439.41;5002706;28;20209;-73
2023/08/06 11:23:29;;;;;;;3.20;1.83;;;;;;;16.17;100.00;99439.34;4990058;28;20291;-73
2023/08/06 11:25:58;;;;;;;1.03;0.70;;;;;;;16.15;100.00;99450.06;4990868;28;20731;-72
2023/08/06 11:28:25;;;;;;;1.10;0.90;;;;;;;16.19;100.00;99456.22;4998802;28;20291;-71